View Sortable Currents For Network
ASOSAWOSCoCoRaHSCOOPDCPISUSM
SchoolNetOtherSCANMy FavoritesBy StateRWIS
RWIS SurfaceRWIS TrafficRWIS SoilBy NWS WFOUSCRN

Current AWOS Conditions

** This page will automatically refresh every five minutes.
Sorted by: (Ob Time)     Click on a column to sort it.

Add ID: Name: Ob Time   Wind [knots]   Rainfall
Temp (Hi / Lo) DewP Feels RH% Dir Speed Peak Gust
@ Time
Alti Vsby Hour Today
PROPerry08:35 PM 20(31/10) 19 96 0 018 @ 12:55 PM 30.14 10 0
CWICLINTON07:56 PM 23(35/12) 22 13 96 230 813 @ 01:25 PM 30.17 8 0
FODFORT DODGE07:56 PM 20(28/12) 17 9 88 200 814 @ 11:50 AM 30.1 10 0 0.0001
OXVKnoxville07:55 PM 27(37/14) 25 20 92 220 619 @ 02:55 PM 30.16 10 0
RDKRED OAK07:55 PM 19(30/9) 19 10 100 200 611 @ 02:15 PM 30.18 8 0
SHLSHELDON07:55 PM 18(28/12) 18 9 100 180 616 @ 02:35 PM 30.03 10 0
ORCOrange City07:55 PM 19(25/7) 18 11 96 190 59 @ 02:15 PM 30.04 10 0
MUTMUSCATINE07:55 PM 28(37/12) 25 21 88 190 612 @ 11:15 AM 30.19 10 0
LRJLE MARS07:55 PM 19(27/5) 18 7 96 190 912 @ 03:15 PM 30.05 10 0
BNWBOONE MUNI07:55 PM 25(30/10) 21 14 85 220 1022 @ 01:35 PM 30.12 10 0
SLBStorm Lake07:55 PM 23(25/12) 19 11 84 210 1117 @ 04:55 AM 30.05 10 0
FSWFORT MADISON07:55 PM 30(39/18) 25 22 81 220 78 @ 02:55 PM 30.22 10 0
CBFCOUNCIL BLUFFS07:55 PM 30(30/9) 25 20 81 210 1111 @ 03:15 PM 30.13 10 0
CINCARROLL07:55 PM 25(25/7) 23 12 92 210 1417 @ 12:55 PM 30.1 10 0
AWGWASHINGTON07:55 PM 30(37/14) 28 21 92 220 911 @ 01:35 PM 30.18 10 0
MPZMOUNT PLEASANT07:55 PM 30(41/14) 27 21 88 220 912 @ 03:15 PM 30.2 7 0
HPTHampton07:55 PM 23(28/14) 19 10 84 230 1414 @ 07:55 PM 30.08 10 0
AIOATLANTIC07:55 PM 18(27/7) 18 9 100 200 612 @ 01:15 PM 30.16 10 0
FFLFAIRFIELD07:55 PM 30(39/16) 23 22 75 210 712 @ 01:55 PM 30.18 10 0
ADUAUDUBON07:55 PM 23(25/5) 19 15 84 190 614 @ 01:55 PM 30.13 10 0
CSQCRESTON07:55 PM 27(32/12) 23 17 85 220 917 @ 12:15 PM 30.18 10 0
FXYForest City07:55 PM 21(28/21) 19 11 92 210 811 @ 02:35 PM 30.06 10 0
ICLCLARINDA07:55 PM 18(30/7) 16 13 92 230 311 @ 02:55 PM 30.22 8 0
DNSDENISON07:55 PM 23(28/7) 19 13 84 200 815 @ 12:15 PM 30.12 10 0
HNRHARLAN07:55 PM M(0/0) M M M @ 06:00 PM 0
IFAIowa Falls07:55 PM 23(29/11) 19 12 84 220 916 @ 01:55 PM 30.13 10 0
GGIGrinnell07:55 PM 28(36/13) 23 18 81 240 1017 @ 01:35 PM 30.17 10 0
EOKKEOKUK MUNI07:55 PM 30(39/14) 25 22 81 230 714 @ 01:15 PM 30.22 10 0
I75Osceola07:55 PM 28(37/16) 23 21 81 210 610 @ 11:55 AM 30.17 10 0
OOAOskaloosa07:55 PM 26(39/13) 22 18 85 220 711 @ 02:15 PM 30.17 10 0
TVKCenterville07:55 PM 28(39/14) 25 88 0 011 @ 02:35 PM 30.21 10 0
PEAPELLA07:55 PM 29(38/16) 22 23 75 230 515 @ 03:15 PM 30.18 10 0
VTIVINTON07:55 PM 22(33/14) 18 84 0 016 @ 12:15 PM 30.15 7 0
CKPCherokee07:55 PM 20(29/11) 17 10 88 180 712 @ 12:35 PM 30.07 10 0
AXAALGONA07:55 PM 19(27/18) 18 5 96 200 1317 @ 09:55 AM 30.03 10 0
CNCCHARITON07:55 PM 27(37/16) 23 18 85 200 815 @ 11:55 AM 30.16 10 0
MXOMONTICELLO MUNI07:55 PM 19(34/12) 18 12 96 180 416 @ 12:15 PM 30.14 7 0
DEHDECORAH07:55 PM 21(23/12) 21 12 100 616 @ 01:35 PM 30.07 10 0
SDASHENANDOAH MUNI07:55 PM 23(32/7) 21 17 92 230 411 @ 02:15 PM 30.2 10 0
IKVANKENY07:55 PM 28(36/14) 21 22 75 220 516 @ 01:15 PM 30.17 10 0
CCYCHARLES CITY07:55 PM 18(25/10) 16 7 92 200 817 @ 12:55 PM 30.09 10 0
TNUNEWTON MUNI07:55 PM 27(36/14) 23 18 85 240 819 @ 02:15 PM 30.15 10 0
IIBINDEPENDENCE07:55 PM 23(31/15) 20 15 88 220 614 @ 10:55 AM 30.13 10 0
CAVCLARION07:55 PM 19(28/16) 16 7 88 200 919 @ 11:55 AM 30.09 10 0
EBSWebster City07:35 PM 21(27/10) 18 9 88 200 1118 @ 12:15 PM 30.1 10 0